EmailTwitter


Observations de surface / Québec / CYUL (71627)

Régions: Québec | Canada | États-Unis | Europe | France | UK | Ailleurs
Station
Affichage
Infos & localisation pour CYUL (71627) | Aide pour décoder les METARs

Observations prises le 2018-10-18 à 21H00 UTC à MONTREAL INTL A, QB (CYUL)

Etat du ciel: quelques nuages.

Température: 4.0 Celsius

Point de rosée: -9.0 Celsius

Humidité relative: 38%

Facteur vent: -1.

Facteur vent (rafales): -2.

Vents: Ouest à 26 km/h ou 14 noeuds.

Rafale du vent: 44 km/h ou 24 noeuds.

Pression au niveau moyen de la mer: 102.33 kilopascals.

Calage altimétrique: 102.30 kilopascals ou 30.21 pouces de mercure.

Visibilité horizontale: 30.00 milles terrestres ou 48.00 kilomètres.

Observation METAR:

CYUL 182100Z 26014G24KT 30SM FEW060 FEW250 04/M09 A3021 RMK SC1CI1 SLP233=